sensor_id;sensor_type;location;lat;lon;timestamp;P1;durP1;ratioP1;P2;durP2;ratioP2
15354;SDS011;7777;52.254;9.618;2023-08-30T00:00:46;2.10;;;1.77;;
15354;SDS011;7777;52.254;9.618;2023-08-30T00:03:12;5.23;;;1.77;;
15354;SDS011;7777;52.254;9.618;2023-08-30T00:05:39;2.43;;;1.80;;
15354;SDS011;7777;52.254;9.618;2023-08-30T00:08:05;2.17;;;1.47;;
15354;SDS011;7777;52.254;9.618;2023-08-30T00:10:31;6.27;;;1.80;;
15354;SDS011;7777;52.254;9.618;2023-08-30T00:12:57;4.03;;;1.90;;
15354;SDS011;7777;52.254;9.618;2023-08-30T00:15:23;2.90;;;1.77;;
15354;SDS011;7777;52.254;9.618;2023-08-30T00:17:49;4.60;;;1.80;;
15354;SDS011;7777;52.254;9.618;2023-08-30T00:20:17;3.10;;;2.23;;
15354;SDS011;7777;52.254;9.618;2023-08-30T00:22:43;2.93;;;1.60;;
15354;SDS011;7777;52.254;9.618;2023-08-30T00:25:09;3.10;;;1.93;;
15354;SDS011;7777;52.254;9.618;2023-08-30T00:27:35;3.67;;;2.07;;
15354;SDS011;7777;52.254;9.618;2023-08-30T00:30:01;3.77;;;2.33;;
15354;SDS011;7777;52.254;9.618;2023-08-30T00:32:27;4.33;;;1.93;;
15354;SDS011;7777;52.254;9.618;2023-08-30T00:34:53;5.43;;;2.17;;
15354;SDS011;7777;52.254;9.618;2023-08-30T00:37:19;6.93;;;2.13;;
15354;SDS011;7777;52.254;9.618;2023-08-30T00:39:44;2.63;;;1.60;;
15354;SDS011;7777;52.254;9.618;2023-08-30T00:42:10;2.63;;;1.87;;
15354;SDS011;7777;52.254;9.618;2023-08-30T00:44:36;4.73;;;1.97;;
15354;SDS011;7777;52.254;9.618;2023-08-30T00:47:02;3.87;;;1.70;;
15354;SDS011;7777;52.254;9.618;2023-08-30T00:49:29;2.40;;;1.80;;
15354;SDS011;7777;52.254;9.618;2023-08-30T00:51:56;7.23;;;1.73;;
15354;SDS011;7777;52.254;9.618;2023-08-30T00:54:27;3.60;;;1.80;;
15354;SDS011;7777;52.254;9.618;2023-08-30T00:56:54;4.87;;;2.57;;
15354;SDS011;7777;52.254;9.618;2023-08-30T00:59:20;4.83;;;2.10;;
15354;SDS011;7777;52.254;9.618;2023-08-30T01:01:47;2.53;;;1.80;;
15354;SDS011;7777;52.254;9.618;2023-08-30T01:04:13;3.17;;;2.10;;
15354;SDS011;7777;52.254;9.618;2023-08-30T01:06:39;7.13;;;2.30;;
15354;SDS011;7777;52.254;9.618;2023-08-30T01:09:06;3.67;;;2.00;;
15354;SDS011;7777;52.254;9.618;2023-08-30T01:11:48;2.70;;;2.10;;
15354;SDS011;7777;52.254;9.618;2023-08-30T01:14:34;3.47;;;2.20;;
15354;SDS011;7777;52.254;9.618;2023-08-30T01:17:45;2.57;;;2.17;;
15354;SDS011;7777;52.254;9.618;2023-08-30T01:20:14;3.37;;;2.20;;
15354;SDS011;7777;52.254;9.618;2023-08-30T01:28:06;2.67;;;2.00;;
15354;SDS011;7777;52.254;9.618;2023-08-30T01:30:33;2.60;;;2.00;;
15354;SDS011;7777;52.254;9.618;2023-08-30T01:33:02;5.20;;;2.00;;
15354;SDS011;7777;52.254;9.618;2023-08-30T01:35:30;4.70;;;2.10;;
15354;SDS011;7777;52.254;9.618;2023-08-30T01:38:02;3.57;;;2.13;;
15354;SDS011;7777;52.254;9.618;2023-08-30T01:40:36;4.30;;;2.00;;
15354;SDS011;7777;52.254;9.618;2023-08-30T01:43:06;2.63;;;1.80;;
15354;SDS011;7777;52.254;9.618;2023-08-30T01:45:38;10.03;;;2.60;;
15354;SDS011;7777;52.254;9.618;2023-08-30T01:48:07;4.90;;;1.80;;
15354;SDS011;7777;52.254;9.618;2023-08-30T01:50:40;2.87;;;1.83;;
15354;SDS011;7777;52.254;9.618;2023-08-30T01:53:08;4.30;;;1.70;;
15354;SDS011;7777;52.254;9.618;2023-08-30T01:55:38;2.50;;;1.70;;
15354;SDS011;7777;52.254;9.618;2023-08-30T01:58:05;6.00;;;1.80;;
15354;SDS011;7777;52.254;9.618;2023-08-30T02:00:32;6.53;;;1.70;;
15354;SDS011;7777;52.254;9.618;2023-08-30T02:02:57;3.63;;;2.03;;
15354;SDS011;7777;52.254;9.618;2023-08-30T02:05:23;2.70;;;1.80;;
15354;SDS011;7777;52.254;9.618;2023-08-30T02:10:49;4.13;;;2.00;;
15354;SDS011;7777;52.254;9.618;2023-08-30T02:13:26;6.80;;;2.37;;
15354;SDS011;7777;52.254;9.618;2023-08-30T02:15:56;3.97;;;1.83;;
15354;SDS011;7777;52.254;9.618;2023-08-30T02:18:25;2.93;;;1.73;;
15354;SDS011;7777;52.254;9.618;2023-08-30T02:20:52;4.40;;;1.70;;
15354;SDS011;7777;52.254;9.618;2023-08-30T02:23:22;3.57;;;1.93;;
15354;SDS011;7777;52.254;9.618;2023-08-30T02:25:50;3.83;;;1.63;;
15354;SDS011;7777;52.254;9.618;2023-08-30T02:28:15;4.33;;;1.70;;
15354;SDS011;7777;52.254;9.618;2023-08-30T02:30:41;3.43;;;1.70;;
15354;SDS011;7777;52.254;9.618;2023-08-30T02:33:07;2.00;;;1.60;;
15354;SDS011;7777;52.254;9.618;2023-08-30T02:35:33;7.03;;;2.00;;
15354;SDS011;7777;52.254;9.618;2023-08-30T02:37:59;3.63;;;1.90;;
15354;SDS011;7777;52.254;9.618;2023-08-30T02:40:33;2.20;;;1.87;;
15354;SDS011;7777;52.254;9.618;2023-08-30T02:43:37;2.87;;;1.97;;
15354;SDS011;7777;52.254;9.618;2023-08-30T02:46:56;2.97;;;2.20;;
15354;SDS011;7777;52.254;9.618;2023-08-30T02:49:22;2.57;;;1.90;;
15354;SDS011;7777;52.254;9.618;2023-08-30T02:51:47;5.50;;;2.10;;
15354;SDS011;7777;52.254;9.618;2023-08-30T02:54:13;3.07;;;2.10;;
15354;SDS011;7777;52.254;9.618;2023-08-30T02:56:42;3.30;;;2.10;;
15354;SDS011;7777;52.254;9.618;2023-08-30T02:59:09;4.00;;;2.10;;
15354;SDS011;7777;52.254;9.618;2023-08-30T03:01:36;5.47;;;2.20;;
15354;SDS011;7777;52.254;9.618;2023-08-30T03:04:06;2.60;;;1.83;;
15354;SDS011;7777;52.254;9.618;2023-08-30T03:06:33;5.93;;;2.43;;
15354;SDS011;7777;52.254;9.618;2023-08-30T03:09:00;2.30;;;1.80;;
15354;SDS011;7777;52.254;9.618;2023-08-30T03:11:27;5.23;;;2.20;;
15354;SDS011;7777;52.254;9.618;2023-08-30T03:13:53;2.93;;;2.27;;
15354;SDS011;7777;52.254;9.618;2023-08-30T03:16:20;7.63;;;2.23;;
15354;SDS011;7777;52.254;9.618;2023-08-30T03:18:46;3.37;;;2.40;;
15354;SDS011;7777;52.254;9.618;2023-08-30T03:21:12;3.30;;;2.00;;
15354;SDS011;7777;52.254;9.618;2023-08-30T03:23:39;3.80;;;2.10;;
15354;SDS011;7777;52.254;9.618;2023-08-30T03:26:19;3.93;;;1.93;;
15354;SDS011;7777;52.254;9.618;2023-08-30T03:28:45;7.40;;;2.20;;
15354;SDS011;7777;52.254;9.618;2023-08-30T03:31:15;3.70;;;2.33;;
15354;SDS011;7777;52.254;9.618;2023-08-30T03:33:45;4.13;;;3.00;;
15354;SDS011;7777;52.254;9.618;2023-08-30T03:36:14;6.80;;;3.40;;
15354;SDS011;7777;52.254;9.618;2023-08-30T03:38:47;4.37;;;3.03;;
15354;SDS011;7777;52.254;9.618;2023-08-30T03:41:13;4.20;;;3.50;;
15354;SDS011;7777;52.254;9.618;2023-08-30T03:43:39;5.60;;;3.80;;
15354;SDS011;7777;52.254;9.618;2023-08-30T03:46:06;5.10;;;4.30;;
15354;SDS011;7777;52.254;9.618;2023-08-30T03:48:34;7.50;;;4.30;;
15354;SDS011;7777;52.254;9.618;2023-08-30T03:51:00;5.43;;;4.23;;
15354;SDS011;7777;52.254;9.618;2023-08-30T03:53:25;7.03;;;5.13;;
15354;SDS011;7777;52.254;9.618;2023-08-30T03:55:51;6.00;;;4.67;;
15354;SDS011;7777;52.254;9.618;2023-08-30T03:58:20;8.43;;;4.77;;
15354;SDS011;7777;52.254;9.618;2023-08-30T04:00:47;5.73;;;4.60;;
15354;SDS011;7777;52.254;9.618;2023-08-30T04:03:14;6.00;;;5.03;;
15354;SDS011;7777;52.254;9.618;2023-08-30T04:05:40;6.70;;;4.73;;
15354;SDS011;7777;52.254;9.618;2023-08-30T04:08:07;7.63;;;4.70;;
15354;SDS011;7777;52.254;9.618;2023-08-30T04:10:40;7.23;;;4.53;;
15354;SDS011;7777;52.254;9.618;2023-08-30T11:17:01;8.00;;;5.33;;
15354;SDS011;7777;52.254;9.618;2023-08-30T11:19:28;6.17;;;4.67;;
15354;SDS011;7777;52.254;9.618;2023-08-30T11:21:55;7.00;;;5.30;;
15354;SDS011;7777;52.254;9.618;2023-08-30T11:24:21;8.07;;;6.07;;
15354;SDS011;7777;52.254;9.618;2023-08-30T11:26:52;8.17;;;5.93;;
15354;SDS011;7777;52.254;9.618;2023-08-30T11:29:19;6.70;;;6.00;;
15354;SDS011;7777;52.254;9.618;2023-08-30T11:31:44;8.17;;;5.77;;
15354;SDS011;7777;52.254;9.618;2023-08-30T11:34:10;7.47;;;5.90;;
15354;SDS011;7777;52.254;9.618;2023-08-30T11:36:36;7.97;;;6.67;;
15354;SDS011;7777;52.254;9.618;2023-08-30T11:39:03;6.27;;;5.57;;
15354;SDS011;7777;52.254;9.618;2023-08-30T11:41:30;6.30;;;5.67;;
15354;SDS011;7777;52.254;9.618;2023-08-30T11:43:56;8.00;;;6.63;;
15354;SDS011;7777;52.254;9.618;2023-08-30T11:46:24;6.90;;;6.17;;
15354;SDS011;7777;52.254;9.618;2023-08-30T11:48:50;8.27;;;5.60;;
15354;SDS011;7777;52.254;9.618;2023-08-30T11:51:17;9.07;;;5.93;;
15354;SDS011;7777;52.254;9.618;2023-08-30T11:53:44;7.03;;;4.33;;
15354;SDS011;7777;52.254;9.618;2023-08-30T11:56:10;7.40;;;4.40;;
15354;SDS011;7777;52.254;9.618;2023-08-30T11:58:37;10.17;;;4.40;;
15354;SDS011;7777;52.254;9.618;2023-08-30T12:01:06;6.23;;;4.03;;
15354;SDS011;7777;52.254;9.618;2023-08-30T12:03:33;5.50;;;3.63;;
15354;SDS011;7777;52.254;9.618;2023-08-30T12:05:58;5.47;;;3.57;;
15354;SDS011;7777;52.254;9.618;2023-08-30T12:08:25;4.90;;;3.93;;
15354;SDS011;7777;52.254;9.618;2023-08-30T12:10:52;5.30;;;3.43;;
15354;SDS011;7777;52.254;9.618;2023-08-30T12:13:22;6.93;;;3.30;;
15354;SDS011;7777;52.254;9.618;2023-08-30T12:15:55;6.70;;;4.47;;
15354;SDS011;7777;52.254;9.618;2023-08-30T12:18:25;4.87;;;3.93;;
15354;SDS011;7777;52.254;9.618;2023-08-30T12:21:03;5.23;;;3.10;;
15354;SDS011;7777;52.254;9.618;2023-08-30T12:23:30;4.53;;;3.00;;
15354;SDS011;7777;52.254;9.618;2023-08-30T12:26:07;5.20;;;2.73;;
15354;SDS011;7777;52.254;9.618;2023-08-30T12:28:38;5.33;;;3.30;;
15354;SDS011;7777;52.254;9.618;2023-08-30T12:31:06;5.47;;;2.80;;
15354;SDS011;7777;52.254;9.618;2023-08-30T12:33:32;4.53;;;2.73;;
15354;SDS011;7777;52.254;9.618;2023-08-30T12:35:59;4.67;;;2.83;;
15354;SDS011;7777;52.254;9.618;2023-08-30T12:38:25;4.90;;;3.20;;
15354;SDS011;7777;52.254;9.618;2023-08-30T12:40:52;7.77;;;3.30;;
15354;SDS011;7777;52.254;9.618;2023-08-30T12:43:20;5.70;;;3.67;;
15354;SDS011;7777;52.254;9.618;2023-08-30T12:45:46;5.90;;;3.43;;
15354;SDS011;7777;52.254;9.618;2023-08-30T12:48:13;7.17;;;3.60;;
15354;SDS011;7777;52.254;9.618;2023-08-30T12:50:41;5.07;;;3.20;;
15354;SDS011;7777;52.254;9.618;2023-08-30T12:53:09;4.93;;;2.60;;
15354;SDS011;7777;52.254;9.618;2023-08-30T12:55:35;6.00;;;2.67;;
15354;SDS011;7777;52.254;9.618;2023-08-30T12:58:01;5.13;;;3.13;;
15354;SDS011;7777;52.254;9.618;2023-08-30T13:00:27;4.60;;;2.80;;
15354;SDS011;7777;52.254;9.618;2023-08-30T13:02:53;9.90;;;3.77;;
15354;SDS011;7777;52.254;9.618;2023-08-30T13:05:21;6.50;;;4.20;;
15354;SDS011;7777;52.254;9.618;2023-08-30T13:07:47;9.10;;;3.87;;
15354;SDS011;7777;52.254;9.618;2023-08-30T13:10:13;7.07;;;4.00;;
15354;SDS011;7777;52.254;9.618;2023-08-30T13:12:39;5.17;;;3.47;;
15354;SDS011;7777;52.254;9.618;2023-08-30T13:15:05;14.03;;;4.40;;
15354;SDS011;7777;52.254;9.618;2023-08-30T13:17:32;6.57;;;4.33;;
15354;SDS011;7777;52.254;9.618;2023-08-30T13:19:58;5.97;;;4.03;;
15354;SDS011;7777;52.254;9.618;2023-08-30T13:22:25;4.03;;;3.60;;
15354;SDS011;7777;52.254;9.618;2023-08-30T13:24:51;6.17;;;3.10;;
15354;SDS011;7777;52.254;9.618;2023-08-30T13:27:17;4.37;;;2.80;;
15354;SDS011;7777;52.254;9.618;2023-08-30T13:29:43;4.93;;;3.40;;
15354;SDS011;7777;52.254;9.618;2023-08-30T13:32:09;6.57;;;3.30;;
15354;SDS011;7777;52.254;9.618;2023-08-30T13:34:35;10.63;;;3.77;;
15354;SDS011;7777;52.254;9.618;2023-08-30T13:37:00;4.37;;;3.57;;
15354;SDS011;7777;52.254;9.618;2023-08-30T13:39:26;5.43;;;3.20;;
15354;SDS011;7777;52.254;9.618;2023-08-30T13:41:52;5.47;;;3.63;;
15354;SDS011;7777;52.254;9.618;2023-08-30T13:44:17;7.90;;;3.53;;
15354;SDS011;7777;52.254;9.618;2023-08-30T13:46:43;5.33;;;3.73;;
15354;SDS011;7777;52.254;9.618;2023-08-30T13:49:11;5.03;;;3.50;;
15354;SDS011;7777;52.254;9.618;2023-08-30T13:51:37;6.33;;;3.33;;
15354;SDS011;7777;52.254;9.618;2023-08-30T13:54:03;3.83;;;3.03;;
15354;SDS011;7777;52.254;9.618;2023-08-30T13:56:29;4.73;;;2.93;;
15354;SDS011;7777;52.254;9.618;2023-08-30T13:58:55;5.50;;;3.40;;
15354;SDS011;7777;52.254;9.618;2023-08-30T14:01:21;4.50;;;3.17;;
15354;SDS011;7777;52.254;9.618;2023-08-30T14:03:47;6.43;;;3.77;;
15354;SDS011;7777;52.254;9.618;2023-08-30T14:06:13;5.77;;;3.20;;
15354;SDS011;7777;52.254;9.618;2023-08-30T14:08:53;5.53;;;3.60;;
15354;SDS011;7777;52.254;9.618;2023-08-30T14:11:19;4.73;;;3.37;;
15354;SDS011;7777;52.254;9.618;2023-08-30T14:13:45;5.27;;;3.20;;
15354;SDS011;7777;52.254;9.618;2023-08-30T14:16:10;5.80;;;3.57;;
15354;SDS011;7777;52.254;9.618;2023-08-30T14:18:36;4.97;;;3.50;;
15354;SDS011;7777;52.254;9.618;2023-08-30T14:21:02;6.27;;;4.00;;
15354;SDS011;7777;52.254;9.618;2023-08-30T14:23:28;3.77;;;3.47;;
15354;SDS011;7777;52.254;9.618;2023-08-30T14:25:57;5.43;;;3.43;;
15354;SDS011;7777;52.254;9.618;2023-08-30T14:28:34;4.73;;;4.00;;
15354;SDS011;7777;52.254;9.618;2023-08-30T14:31:03;4.83;;;3.87;;
15354;SDS011;7777;52.254;9.618;2023-08-30T14:33:35;8.70;;;4.90;;
15354;SDS011;7777;52.254;9.618;2023-08-30T14:36:12;10.07;;;6.20;;
15354;SDS011;7777;52.254;9.618;2023-08-30T14:38:39;8.43;;;6.83;;
15354;SDS011;7777;52.254;9.618;2023-08-30T14:41:06;8.40;;;6.57;;
15354;SDS011;7777;52.254;9.618;2023-08-30T14:43:31;6.73;;;5.73;;
15354;SDS011;7777;52.254;9.618;2023-08-30T14:46:07;8.47;;;6.47;;
15354;SDS011;7777;52.254;9.618;2023-08-30T14:48:33;6.80;;;6.10;;
15354;SDS011;7777;52.254;9.618;2023-08-30T14:50:59;7.23;;;6.00;;
15354;SDS011;7777;52.254;9.618;2023-08-30T14:53:26;10.77;;;7.27;;
15354;SDS011;7777;52.254;9.618;2023-08-30T14:55:52;13.57;;;11.67;;
15354;SDS011;7777;52.254;9.618;2023-08-30T14:58:20;22.40;;;20.00;;
15354;SDS011;7777;52.254;9.618;2023-08-30T15:00:48;14.40;;;12.83;;
15354;SDS011;7777;52.254;9.618;2023-08-30T15:03:16;7.53;;;6.73;;
15354;SDS011;7777;52.254;9.618;2023-08-30T15:05:42;9.20;;;6.80;;
15354;SDS011;7777;52.254;9.618;2023-08-30T15:08:08;7.47;;;6.57;;
15354;SDS011;7777;52.254;9.618;2023-08-30T15:10:34;9.40;;;6.47;;
15354;SDS011;7777;52.254;9.618;2023-08-30T15:12:59;7.57;;;6.80;;
15354;SDS011;7777;52.254;9.618;2023-08-30T15:15:25;12.37;;;6.60;;
15354;SDS011;7777;52.254;9.618;2023-08-30T15:17:51;9.97;;;7.40;;
15354;SDS011;7777;52.254;9.618;2023-08-30T15:20:16;9.20;;;6.37;;
15354;SDS011;7777;52.254;9.618;2023-08-30T15:22:42;8.13;;;6.37;;
15354;SDS011;7777;52.254;9.618;2023-08-30T15:25:08;8.57;;;7.27;;
15354;SDS011;7777;52.254;9.618;2023-08-30T15:27:34;9.90;;;6.30;;
15354;SDS011;7777;52.254;9.618;2023-08-30T15:30:00;7.87;;;6.50;;
15354;SDS011;7777;52.254;9.618;2023-08-30T15:32:28;7.43;;;5.73;;
15354;SDS011;7777;52.254;9.618;2023-08-30T18:00:29;5.90;;;2.57;;
15354;SDS011;7777;52.254;9.618;2023-08-30T18:02:56;4.50;;;2.47;;
15354;SDS011;7777;52.254;9.618;2023-08-30T18:05:22;2.63;;;1.90;;
15354;SDS011;7777;52.254;9.618;2023-08-30T18:07:49;7.20;;;2.07;;
15354;SDS011;7777;52.254;9.618;2023-08-30T18:10:19;7.27;;;2.20;;
15354;SDS011;7777;52.254;9.618;2023-08-30T18:12:45;3.30;;;2.00;;
15354;SDS011;7777;52.254;9.618;2023-08-30T18:15:11;3.60;;;2.00;;
15354;SDS011;7777;52.254;9.618;2023-08-30T18:17:37;5.43;;;1.83;;
15354;SDS011;7777;52.254;9.618;2023-08-30T18:20:03;2.47;;;1.70;;
15354;SDS011;7777;52.254;9.618;2023-08-30T18:22:31;6.37;;;2.33;;
15354;SDS011;7777;52.254;9.618;2023-08-30T18:24:57;2.20;;;1.60;;
15354;SDS011;7777;52.254;9.618;2023-08-30T18:27:23;3.03;;;1.93;;
15354;SDS011;7777;52.254;9.618;2023-08-30T18:29:48;2.60;;;1.80;;
15354;SDS011;7777;52.254;9.618;2023-08-30T18:32:14;3.17;;;2.23;;
15354;SDS011;7777;52.254;9.618;2023-08-30T18:34:40;3.63;;;2.30;;
15354;SDS011;7777;52.254;9.618;2023-08-30T18:37:07;3.50;;;2.50;;
15354;SDS011;7777;52.254;9.618;2023-08-30T18:39:34;3.90;;;2.80;;
15354;SDS011;7777;52.254;9.618;2023-08-30T18:41:59;4.10;;;3.57;;
15354;SDS011;7777;52.254;9.618;2023-08-30T18:44:26;4.23;;;3.23;;
15354;SDS011;7777;52.254;9.618;2023-08-30T18:46:52;4.97;;;3.57;;
15354;SDS011;7777;52.254;9.618;2023-08-30T18:49:17;4.63;;;3.47;;
15354;SDS011;7777;52.254;9.618;2023-08-30T18:51:43;5.60;;;3.80;;
15354;SDS011;7777;52.254;9.618;2023-08-30T18:54:10;6.17;;;4.13;;
15354;SDS011;7777;52.254;9.618;2023-08-30T18:56:35;4.77;;;4.10;;
15354;SDS011;7777;52.254;9.618;2023-08-30T18:59:03;4.90;;;3.60;;
15354;SDS011;7777;52.254;9.618;2023-08-30T19:01:30;6.37;;;3.47;;
15354;SDS011;7777;52.254;9.618;2023-08-30T19:03:59;4.70;;;4.07;;
15354;SDS011;7777;52.254;9.618;2023-08-30T19:06:25;7.80;;;3.33;;
15354;SDS011;7777;52.254;9.618;2023-08-30T19:08:51;6.90;;;3.77;;
15354;SDS011;7777;52.254;9.618;2023-08-30T19:11:18;5.30;;;3.67;;
15354;SDS011;7777;52.254;9.618;2023-08-30T19:13:44;5.30;;;3.60;;
15354;SDS011;7777;52.254;9.618;2023-08-30T19:16:11;6.83;;;4.10;;
15354;SDS011;7777;52.254;9.618;2023-08-30T19:18:41;7.50;;;4.53;;
15354;SDS011;7777;52.254;9.618;2023-08-30T19:21:07;6.33;;;4.53;;
15354;SDS011;7777;52.254;9.618;2023-08-30T19:23:33;6.40;;;4.57;;
15354;SDS011;7777;52.254;9.618;2023-08-30T19:25:59;5.13;;;4.00;;
15354;SDS011;7777;52.254;9.618;2023-08-30T19:28:25;5.27;;;4.77;;
15354;SDS011;7777;52.254;9.618;2023-08-30T19:30:51;6.10;;;4.70;;
15354;SDS011;7777;52.254;9.618;2023-08-30T19:33:18;5.83;;;4.93;;
15354;SDS011;7777;52.254;9.618;2023-08-30T19:35:45;7.63;;;5.60;;
15354;SDS011;7777;52.254;9.618;2023-08-30T19:38:11;7.10;;;5.17;;
15354;SDS011;7777;52.254;9.618;2023-08-30T19:40:37;5.87;;;5.07;;
15354;SDS011;7777;52.254;9.618;2023-08-30T19:43:03;6.50;;;4.70;;
15354;SDS011;7777;52.254;9.618;2023-08-30T19:45:28;5.70;;;4.60;;
15354;SDS011;7777;52.254;9.618;2023-08-30T19:47:54;5.87;;;5.07;;
15354;SDS011;7777;52.254;9.618;2023-08-30T19:50:20;5.60;;;5.00;;
15354;SDS011;7777;52.254;9.618;2023-08-30T19:52:46;6.80;;;5.60;;
15354;SDS011;7777;52.254;9.618;2023-08-30T19:55:13;5.47;;;4.87;;
15354;SDS011;7777;52.254;9.618;2023-08-30T19:57:39;6.03;;;5.27;;
15354;SDS011;7777;52.254;9.618;2023-08-30T20:00:07;8.60;;;5.70;;
15354;SDS011;7777;52.254;9.618;2023-08-30T20:02:36;6.07;;;5.50;;
15354;SDS011;7777;52.254;9.618;2023-08-30T20:05:02;6.27;;;5.23;;
15354;SDS011;7777;52.254;9.618;2023-08-30T20:07:29;8.10;;;5.90;;
15354;SDS011;7777;52.254;9.618;2023-08-30T20:09:55;13.47;;;6.23;;
15354;SDS011;7777;52.254;9.618;2023-08-30T20:12:22;7.20;;;5.60;;
15354;SDS011;7777;52.254;9.618;2023-08-30T20:14:48;10.13;;;5.50;;
15354;SDS011;7777;52.254;9.618;2023-08-30T20:17:14;7.30;;;5.67;;
15354;SDS011;7777;52.254;9.618;2023-08-30T20:19:40;6.90;;;6.27;;
15354;SDS011;7777;52.254;9.618;2023-08-30T20:22:06;6.20;;;5.60;;
15354;SDS011;7777;52.254;9.618;2023-08-30T20:24:32;7.50;;;6.17;;
15354;SDS011;7777;52.254;9.618;2023-08-30T20:27:00;6.73;;;5.90;;
15354;SDS011;7777;52.254;9.618;2023-08-30T20:29:26;6.67;;;5.97;;
15354;SDS011;7777;52.254;9.618;2023-08-30T20:31:52;6.90;;;6.20;;
15354;SDS011;7777;52.254;9.618;2023-08-30T20:34:18;6.80;;;6.10;;
15354;SDS011;7777;52.254;9.618;2023-08-30T20:36:45;7.23;;;6.20;;
15354;SDS011;7777;52.254;9.618;2023-08-30T20:39:11;8.13;;;5.80;;
15354;SDS011;7777;52.254;9.618;2023-08-30T20:41:37;6.60;;;5.80;;
15354;SDS011;7777;52.254;9.618;2023-08-30T20:44:04;7.53;;;5.60;;
15354;SDS011;7777;52.254;9.618;2023-08-30T20:46:30;8.60;;;6.57;;
15354;SDS011;7777;52.254;9.618;2023-08-30T20:48:56;7.37;;;6.00;;
15354;SDS011;7777;52.254;9.618;2023-08-30T20:51:21;7.80;;;5.90;;
15354;SDS011;7777;52.254;9.618;2023-08-30T20:53:47;8.33;;;6.40;;
15354;SDS011;7777;52.254;9.618;2023-08-30T20:56:15;10.23;;;5.83;;
15354;SDS011;7777;52.254;9.618;2023-08-30T20:58:41;8.83;;;6.13;;
15354;SDS011;7777;52.254;9.618;2023-08-30T21:01:11;5.93;;;5.33;;
15354;SDS011;7777;52.254;9.618;2023-08-30T21:03:37;6.97;;;5.80;;
15354;SDS011;7777;52.254;9.618;2023-08-30T21:06:03;7.33;;;6.07;;
15354;SDS011;7777;52.254;9.618;2023-08-30T21:08:30;9.93;;;5.47;;
15354;SDS011;7777;52.254;9.618;2023-08-30T21:10:56;6.17;;;5.57;;
15354;SDS011;7777;52.254;9.618;2023-08-30T21:13:22;6.63;;;5.80;;
15354;SDS011;7777;52.254;9.618;2023-08-30T21:15:48;5.50;;;5.00;;
15354;SDS011;7777;52.254;9.618;2023-08-30T21:18:13;7.40;;;6.00;;
15354;SDS011;7777;52.254;9.618;2023-08-30T21:20:39;7.93;;;5.23;;
15354;SDS011;7777;52.254;9.618;2023-08-30T21:23:05;6.00;;;5.33;;
15354;SDS011;7777;52.254;9.618;2023-08-30T21:25:39;7.70;;;5.60;;
15354;SDS011;7777;52.254;9.618;2023-08-30T21:28:07;5.97;;;5.03;;
15354;SDS011;7777;52.254;9.618;2023-08-30T21:30:37;6.17;;;5.43;;
15354;SDS011;7777;52.254;9.618;2023-08-30T21:33:05;5.60;;;5.00;;
15354;SDS011;7777;52.254;9.618;2023-08-30T21:35:37;7.00;;;5.47;;
15354;SDS011;7777;52.254;9.618;2023-08-30T21:38:14;8.07;;;4.87;;
15354;SDS011;7777;52.254;9.618;2023-08-30T21:40:44;10.47;;;5.20;;
15354;SDS011;7777;52.254;9.618;2023-08-30T21:43:11;6.37;;;4.80;;
15354;SDS011;7777;52.254;9.618;2023-08-30T21:45:38;9.83;;;5.87;;
15354;SDS011;7777;52.254;9.618;2023-08-30T21:48:06;8.97;;;5.67;;
15354;SDS011;7777;52.254;9.618;2023-08-30T21:50:33;6.90;;;5.67;;
15354;SDS011;7777;52.254;9.618;2023-08-30T21:52:59;8.33;;;6.10;;
15354;SDS011;7777;52.254;9.618;2023-08-30T21:55:25;8.83;;;6.47;;
15354;SDS011;7777;52.254;9.618;2023-08-30T21:57:54;8.03;;;6.40;;
15354;SDS011;7777;52.254;9.618;2023-08-30T22:00:20;7.67;;;6.53;;
15354;SDS011;7777;52.254;9.618;2023-08-30T22:02:46;7.17;;;5.80;;
15354;SDS011;7777;52.254;9.618;2023-08-30T22:05:12;7.67;;;6.43;;
15354;SDS011;7777;52.254;9.618;2023-08-30T22:07:39;6.50;;;5.80;;
15354;SDS011;7777;52.254;9.618;2023-08-30T22:10:06;7.60;;;6.27;;
15354;SDS011;7777;52.254;9.618;2023-08-30T22:12:38;7.77;;;6.70;;
15354;SDS011;7777;52.254;9.618;2023-08-30T22:15:05;9.80;;;6.37;;
15354;SDS011;7777;52.254;9.618;2023-08-30T22:17:37;7.43;;;6.63;;
15354;SDS011;7777;52.254;9.618;2023-08-30T22:20:23;7.37;;;6.57;;
15354;SDS011;7777;52.254;9.618;2023-08-30T22:22:48;9.97;;;7.57;;
15354;SDS011;7777;52.254;9.618;2023-08-30T22:25:14;9.13;;;7.00;;
15354;SDS011;7777;52.254;9.618;2023-08-30T22:27:40;8.40;;;7.50;;
15354;SDS011;7777;52.254;9.618;2023-08-30T22:30:08;9.33;;;7.00;;
15354;SDS011;7777;52.254;9.618;2023-08-30T22:32:36;8.27;;;7.47;;
15354;SDS011;7777;52.254;9.618;2023-08-30T22:35:03;10.10;;;7.63;;
15354;SDS011;7777;52.254;9.618;2023-08-30T22:37:30;9.13;;;7.40;;
15354;SDS011;7777;52.254;9.618;2023-08-30T22:39:57;8.63;;;7.63;;
15354;SDS011;7777;52.254;9.618;2023-08-30T22:42:25;9.07;;;7.73;;
15354;SDS011;7777;52.254;9.618;2023-08-30T22:44:54;12.27;;;7.77;;
15354;SDS011;7777;52.254;9.618;2023-08-30T22:47:19;12.73;;;8.90;;
15354;SDS011;7777;52.254;9.618;2023-08-30T22:49:46;8.77;;;7.80;;
15354;SDS011;7777;52.254;9.618;2023-08-30T22:52:12;8.77;;;7.87;;
15354;SDS011;7777;52.254;9.618;2023-08-30T22:54:38;11.80;;;8.73;;
15354;SDS011;7777;52.254;9.618;2023-08-30T22:57:04;10.07;;;8.33;;
15354;SDS011;7777;52.254;9.618;2023-08-30T22:59:30;10.03;;;7.97;;
15354;SDS011;7777;52.254;9.618;2023-08-30T23:01:57;10.80;;;8.00;;
15354;SDS011;7777;52.254;9.618;2023-08-30T23:04:23;9.70;;;8.70;;
15354;SDS011;7777;52.254;9.618;2023-08-30T23:06:53;9.93;;;8.40;;
15354;SDS011;7777;52.254;9.618;2023-08-30T23:09:20;10.97;;;8.77;;
15354;SDS011;7777;52.254;9.618;2023-08-30T23:11:46;10.60;;;7.57;;
15354;SDS011;7777;52.254;9.618;2023-08-30T23:14:13;9.20;;;7.13;;
15354;SDS011;7777;52.254;9.618;2023-08-30T23:16:40;9.63;;;7.73;;
15354;SDS011;7777;52.254;9.618;2023-08-30T23:19:06;12.57;;;7.73;;
15354;SDS011;7777;52.254;9.618;2023-08-30T23:21:33;10.33;;;8.13;;
15354;SDS011;7777;52.254;9.618;2023-08-30T23:23:58;9.80;;;7.33;;
15354;SDS011;7777;52.254;9.618;2023-08-30T23:26:25;8.53;;;7.27;;
15354;SDS011;7777;52.254;9.618;2023-08-30T23:28:52;10.43;;;7.33;;
15354;SDS011;7777;52.254;9.618;2023-08-30T23:31:18;7.93;;;7.03;;
15354;SDS011;7777;52.254;9.618;2023-08-30T23:33:44;9.10;;;7.40;;
15354;SDS011;7777;52.254;9.618;2023-08-30T23:36:11;9.33;;;7.97;;
15354;SDS011;7777;52.254;9.618;2023-08-30T23:38:37;9.87;;;7.40;;
15354;SDS011;7777;52.254;9.618;2023-08-30T23:41:03;9.67;;;7.23;;
15354;SDS011;7777;52.254;9.618;2023-08-30T23:43:29;10.73;;;7.67;;
15354;SDS011;7777;52.254;9.618;2023-08-30T23:45:55;8.87;;;7.87;;
15354;SDS011;7777;52.254;9.618;2023-08-30T23:48:21;9.77;;;7.47;;
15354;SDS011;7777;52.254;9.618;2023-08-30T23:50:48;9.97;;;8.00;;
15354;SDS011;7777;52.254;9.618;2023-08-30T23:53:14;10.43;;;7.97;;
15354;SDS011;7777;52.254;9.618;2023-08-30T23:55:48;10.80;;;6.67;;
15354;SDS011;7777;52.254;9.618;2023-08-30T23:58:16;18.30;;;6.83;;
